North Fork, Illinois
Current Conditions -  °F | °C
As of 5:35 PM on Sunday 21 Dec 2014 (Local Time) from KHSB Reporting Station
Clear Clear  
Wind Chill: 33°   Ceiling: Unl
Heat Index: 38°   Visibility: 10mi
Dew Point: 31°   Wind: 7mph
Humidity: 75%   Direction: 70°ENE
Pressure: 30.08"   Gusts: NA
Location:  37.8197°N, 88.2641°W
Report Text: KHSB 212335Z AUTO 07006KT 10SM CLR 04/00 A3008 RMK AO2 T00361005
Loading
Personal Weather Stations






























Interactive Weather Map New forecast layout! Learn more

10-Day Weather Forecast

Advertisements
Track Severe Weather on mobile